sensor_id;sensor_type;location;lat;lon;timestamp;pressure;altitude;pressure_sealevel;temperature;humidity
6833;BME280;3454;42.654;23.378;2022-08-25T00:01:18;94363.28;;;21.32;100.00
6833;BME280;3454;42.654;23.378;2022-08-25T00:03:45;94367.44;;;21.39;100.00
6833;BME280;3454;42.654;23.378;2022-08-25T00:08:56;94357.72;;;21.15;100.00
6833;BME280;3454;42.654;23.378;2022-08-25T00:11:25;94358.91;;;21.26;100.00
6833;BME280;3454;42.654;23.378;2022-08-25T00:13:53;94361.13;;;21.22;100.00
6833;BME280;3454;42.654;23.378;2022-08-25T00:16:21;94355.34;;;21.27;100.00
6833;BME280;3454;42.654;23.378;2022-08-25T00:18:50;94350.38;;;21.19;100.00
6833;BME280;3454;42.654;23.378;2022-08-25T00:21:16;94356.50;;;21.37;100.00
6833;BME280;3454;42.654;23.378;2022-08-25T00:23:42;94347.78;;;21.25;100.00
6833;BME280;3454;42.654;23.378;2022-08-25T00:26:08;94332.47;;;21.17;100.00
6833;BME280;3454;42.654;23.378;2022-08-25T00:28:34;94332.69;;;21.09;100.00
6833;BME280;3454;42.654;23.378;2022-08-25T00:31:01;94330.31;;;20.95;100.00
6833;BME280;3454;42.654;23.378;2022-08-25T00:33:27;94345.00;;;21.14;100.00
6833;BME280;3454;42.654;23.378;2022-08-25T00:35:56;94333.28;;;21.11;100.00
6833;BME280;3454;42.654;23.378;2022-08-25T00:38:22;94354.91;;;21.36;100.00
6833;BME280;3454;42.654;23.378;2022-08-25T00:40:48;94351.97;;;21.26;100.00
6833;BME280;3454;42.654;23.378;2022-08-25T00:43:52;94351.19;;;21.13;100.00
6833;BME280;3454;42.654;23.378;2022-08-25T00:46:25;94347.59;;;21.07;100.00
6833;BME280;3454;42.654;23.378;2022-08-25T00:48:58;94348.81;;;21.05;100.00
6833;BME280;3454;42.654;23.378;2022-08-25T00:51:31;94361.91;;;21.16;100.00
6833;BME280;3454;42.654;23.378;2022-08-25T00:53:58;94379.75;;;21.44;100.00
6833;BME280;3454;42.654;23.378;2022-08-25T00:56:26;94368.84;;;21.35;100.00
6833;BME280;3454;42.654;23.378;2022-08-25T00:58:53;94341.22;;;21.23;100.00
6833;BME280;3454;42.654;23.378;2022-08-25T01:01:19;94344.00;;;21.28;100.00
6833;BME280;3454;42.654;23.378;2022-08-25T01:03:44;94345.97;;;21.32;100.00
6833;BME280;3454;42.654;23.378;2022-08-25T01:06:10;94332.25;;;21.25;100.00
6833;BME280;3454;42.654;23.378;2022-08-25T01:08:36;94325.13;;;21.14;100.00
6833;BME280;3454;42.654;23.378;2022-08-25T01:11:05;94326.31;;;21.05;100.00
6833;BME280;3454;42.654;23.378;2022-08-25T01:13:40;94325.34;;;21.13;100.00
6833;BME280;3454;42.654;23.378;2022-08-25T01:16:07;94329.91;;;21.04;100.00
6833;BME280;3454;42.654;23.378;2022-08-25T01:18:47;94320.56;;;21.16;100.00
6833;BME280;3454;42.654;23.378;2022-08-25T01:21:13;94337.41;;;21.32;100.00
6833;BME280;3454;42.654;23.378;2022-08-25T01:23:39;94316.19;;;21.17;100.00
6833;BME280;3454;42.654;23.378;2022-08-25T01:28:36;94324.50;;;21.25;100.00
6833;BME280;3454;42.654;23.378;2022-08-25T01:31:03;94317.97;;;21.23;100.00
6833;BME280;3454;42.654;23.378;2022-08-25T01:33:29;94321.53;;;21.15;100.00
6833;BME280;3454;42.654;23.378;2022-08-25T01:35:55;94323.09;;;21.36;100.00
6833;BME280;3454;42.654;23.378;2022-08-25T01:38:21;94322.28;;;21.35;100.00
6833;BME280;3454;42.654;23.378;2022-08-25T01:40:46;94340.97;;;21.37;100.00
6833;BME280;3454;42.654;23.378;2022-08-25T01:43:16;94339.41;;;21.30;100.00
6833;BME280;3454;42.654;23.378;2022-08-25T01:45:47;94338.22;;;21.39;100.00
6833;BME280;3454;42.654;23.378;2022-08-25T01:48:14;94338.59;;;21.36;100.00
6833;BME280;3454;42.654;23.378;2022-08-25T01:50:41;94339.78;;;21.40;100.00
6833;BME280;3454;42.654;23.378;2022-08-25T01:55:43;94342.88;;;21.61;100.00
6833;BME280;3454;42.654;23.378;2022-08-25T01:58:28;94322.84;;;21.50;100.00
6833;BME280;3454;42.654;23.378;2022-08-25T02:00:59;94325.06;;;21.40;100.00
6833;BME280;3454;42.654;23.378;2022-08-25T02:03:27;94314.13;;;21.38;100.00
6833;BME280;3454;42.654;23.378;2022-08-25T02:05:53;94297.66;;;21.20;100.00
6833;BME280;3454;42.654;23.378;2022-08-25T02:08:20;94300.47;;;21.12;100.00
6833;BME280;3454;42.654;23.378;2022-08-25T02:10:47;94303.44;;;20.96;100.00
6833;BME280;3454;42.654;23.378;2022-08-25T02:13:13;94298.69;;;20.86;100.00
6833;BME280;3454;42.654;23.378;2022-08-25T02:15:41;94294.53;;;20.78;100.00
6833;BME280;3454;42.654;23.378;2022-08-25T02:18:07;94294.50;;;20.98;100.00
6833;BME280;3454;42.654;23.378;2022-08-25T02:20:33;94294.72;;;21.10;100.00
6833;BME280;3454;42.654;23.378;2022-08-25T02:22:58;94289.75;;;20.88;100.00
6833;BME280;3454;42.654;23.378;2022-08-25T02:25:24;94303.06;;;20.79;100.00
6833;BME280;3454;42.654;23.378;2022-08-25T02:27:49;94293.94;;;20.63;100.00
6833;BME280;3454;42.654;23.378;2022-08-25T02:30:16;94302.69;;;20.49;100.00
6833;BME280;3454;42.654;23.378;2022-08-25T02:32:41;94287.78;;;20.45;100.00
6833;BME280;3454;42.654;23.378;2022-08-25T02:35:07;94294.34;;;20.41;100.00
6833;BME280;3454;42.654;23.378;2022-08-25T02:37:34;94296.53;;;20.44;100.00
6833;BME280;3454;42.654;23.378;2022-08-25T02:40:00;94298.53;;;20.42;100.00
6833;BME280;3454;42.654;23.378;2022-08-25T02:42:26;94306.84;;;20.37;100.00
6833;BME280;3454;42.654;23.378;2022-08-25T02:44:52;94307.84;;;20.36;100.00
6833;BME280;3454;42.654;23.378;2022-08-25T02:47:18;94298.31;;;20.30;100.00
6833;BME280;3454;42.654;23.378;2022-08-25T02:49:44;94299.50;;;20.28;100.00
6833;BME280;3454;42.654;23.378;2022-08-25T02:52:10;94308.03;;;20.28;100.00
6833;BME280;3454;42.654;23.378;2022-08-25T02:54:35;94314.59;;;20.31;100.00
6833;BME280;3454;42.654;23.378;2022-08-25T02:57:01;94313.41;;;20.27;100.00
6833;BME280;3454;42.654;23.378;2022-08-25T02:59:27;94312.59;;;20.20;100.00
6833;BME280;3454;42.654;23.378;2022-08-25T03:01:52;94316.75;;;20.21;100.00
6833;BME280;3454;42.654;23.378;2022-08-25T03:04:18;94310.34;;;20.10;100.00
6833;BME280;3454;42.654;23.378;2022-08-25T03:06:44;94317.50;;;20.08;100.00
6833;BME280;3454;42.654;23.378;2022-08-25T03:09:10;94317.94;;;20.12;100.00
6833;BME280;3454;42.654;23.378;2022-08-25T03:11:36;94321.88;;;20.07;100.00
6833;BME280;3454;42.654;23.378;2022-08-25T03:14:06;94320.28;;;20.06;100.00
6833;BME280;3454;42.654;23.378;2022-08-25T03:16:32;94323.28;;;20.03;100.00
6833;BME280;3454;42.654;23.378;2022-08-25T03:18:58;94311.75;;;19.99;100.00
6833;BME280;3454;42.654;23.378;2022-08-25T03:21:25;94317.91;;;20.05;100.00
6833;BME280;3454;42.654;23.378;2022-08-25T03:23:50;94319.09;;;20.02;100.00
6833;BME280;3454;42.654;23.378;2022-08-25T03:26:16;94312.34;;;20.01;100.00
6833;BME280;3454;42.654;23.378;2022-08-25T03:29:00;94326.03;;;20.08;100.00
6833;BME280;3454;42.654;23.378;2022-08-25T03:31:30;94316.72;;;20.07;100.00
6833;BME280;3454;42.654;23.378;2022-08-25T03:33:57;94324.88;;;20.18;100.00
6833;BME280;3454;42.654;23.378;2022-08-25T03:36:22;94329.44;;;20.16;100.00
6833;BME280;3454;42.654;23.378;2022-08-25T03:38:48;94330.22;;;20.16;100.00
6833;BME280;3454;42.654;23.378;2022-08-25T03:41:23;94323.72;;;20.20;100.00
6833;BME280;3454;42.654;23.378;2022-08-25T03:43:50;94326.88;;;20.22;100.00
6833;BME280;3454;42.654;23.378;2022-08-25T03:46:21;94325.31;;;20.21;100.00
6833;BME280;3454;42.654;23.378;2022-08-25T03:48:47;94310.56;;;20.08;100.00
6833;BME280;3454;42.654;23.378;2022-08-25T03:51:39;94304.44;;;20.09;100.00
6833;BME280;3454;42.654;23.378;2022-08-25T03:54:05;94307.78;;;20.17;100.00
6833;BME280;3454;42.654;23.378;2022-08-25T03:56:30;94302.44;;;20.12;100.00
6833;BME280;3454;42.654;23.378;2022-08-25T03:58:56;94314.38;;;20.19;100.00
6833;BME280;3454;42.654;23.378;2022-08-25T04:01:22;94325.53;;;20.33;100.00
6833;BME280;3454;42.654;23.378;2022-08-25T04:03:48;94320.56;;;20.38;100.00
6833;BME280;3454;42.654;23.378;2022-08-25T04:06:15;94327.16;;;20.60;100.00
6833;BME280;3454;42.654;23.378;2022-08-25T04:08:41;94320.97;;;20.48;100.00
6833;BME280;3454;42.654;23.378;2022-08-25T04:11:12;94315.59;;;20.43;100.00
6833;BME280;3454;42.654;23.378;2022-08-25T04:13:38;94316.00;;;20.40;100.00
6833;BME280;3454;42.654;23.378;2022-08-25T04:16:14;94314.03;;;20.42;100.00
6833;BME280;3454;42.654;23.378;2022-08-25T04:18:47;94309.25;;;20.39;100.00
6833;BME280;3454;42.654;23.378;2022-08-25T04:21:13;94318.19;;;20.43;100.00
6833;BME280;3454;42.654;23.378;2022-08-25T04:23:41;94307.25;;;20.41;100.00
6833;BME280;3454;42.654;23.378;2022-08-25T04:26:25;94297.50;;;20.36;100.00
6833;BME280;3454;42.654;23.378;2022-08-25T04:28:53;94296.13;;;20.40;100.00
6833;BME280;3454;42.654;23.378;2022-08-25T04:31:19;94301.69;;;20.76;100.00
6833;BME280;3454;42.654;23.378;2022-08-25T04:33:46;94316.78;;;21.06;100.00
6833;BME280;3454;42.654;23.378;2022-08-25T04:36:13;94333.25;;;21.24;100.00
6833;BME280;3454;42.654;23.378;2022-08-25T04:38:40;94344.97;;;21.40;100.00
6833;BME280;3454;42.654;23.378;2022-08-25T04:41:07;94345.16;;;21.45;100.00
6833;BME280;3454;42.654;23.378;2022-08-25T04:43:34;94352.84;;;21.64;100.00
6833;BME280;3454;42.654;23.378;2022-08-25T04:46:05;94369.75;;;21.67;100.00
6833;BME280;3454;42.654;23.378;2022-08-25T04:48:31;94363.56;;;21.74;100.00
6833;BME280;3454;42.654;23.378;2022-08-25T04:50:57;94367.31;;;21.79;100.00
6833;BME280;3454;42.654;23.378;2022-08-25T04:53:22;94371.13;;;21.83;100.00
6833;BME280;3454;42.654;23.378;2022-08-25T04:55:48;94386.63;;;21.76;100.00
6833;BME280;3454;42.654;23.378;2022-08-25T04:58:15;94378.28;;;21.74;100.00
6833;BME280;3454;42.654;23.378;2022-08-25T05:00:41;94367.91;;;21.94;100.00
6833;BME280;3454;42.654;23.378;2022-08-25T05:03:07;94375.03;;;21.98;100.00
6833;BME280;3454;42.654;23.378;2022-08-25T05:05:35;94386.63;;;21.96;100.00
6833;BME280;3454;42.654;23.378;2022-08-25T05:08:01;94335.66;;;21.90;100.00
6833;BME280;3454;42.654;23.378;2022-08-25T05:10:27;94367.91;;;21.81;100.00
6833;BME280;3454;42.654;23.378;2022-08-25T05:12:53;94364.75;;;21.72;100.00
6833;BME280;3454;42.654;23.378;2022-08-25T05:15:18;94354.19;;;21.73;100.00
6833;BME280;3454;42.654;23.378;2022-08-25T05:18:02;94355.59;;;21.83;100.00
6833;BME280;3454;42.654;23.378;2022-08-25T05:20:27;94364.75;;;21.72;100.00
6833;BME280;3454;42.654;23.378;2022-08-25T05:22:55;94331.44;;;21.31;100.00
6833;BME280;3454;42.654;23.378;2022-08-25T05:25:21;94313.22;;;21.07;100.00
6833;BME280;3454;42.654;23.378;2022-08-25T05:27:47;94295.53;;;20.90;100.00
6833;BME280;3454;42.654;23.378;2022-08-25T05:30:12;94298.31;;;20.76;100.00
6833;BME280;3454;42.654;23.378;2022-08-25T05:32:38;94297.50;;;20.69;100.00
6833;BME280;3454;42.654;23.378;2022-08-25T05:35:05;94298.31;;;20.63;100.00
6833;BME280;3454;42.654;23.378;2022-08-25T05:37:31;94295.13;;;20.61;100.00
6833;BME280;3454;42.654;23.378;2022-08-25T05:39:56;94296.16;;;20.60;100.00
6833;BME280;3454;42.654;23.378;2022-08-25T05:42:23;94307.88;;;20.56;100.00
6833;BME280;3454;42.654;23.378;2022-08-25T05:44:48;94297.53;;;20.56;100.00
6833;BME280;3454;42.654;23.378;2022-08-25T05:47:14;94316.22;;;20.58;100.00
6833;BME280;3454;42.654;23.378;2022-08-25T05:49:40;94308.63;;;20.56;100.00
6833;BME280;3454;42.654;23.378;2022-08-25T05:52:05;94308.47;;;20.58;100.00
6833;BME280;3454;42.654;23.378;2022-08-25T05:54:31;94303.28;;;20.58;100.00
6833;BME280;3454;42.654;23.378;2022-08-25T05:56:57;94306.88;;;20.63;100.00
6833;BME280;3454;42.654;23.378;2022-08-25T05:59:23;94314.81;;;20.75;100.00
6833;BME280;3454;42.654;23.378;2022-08-25T06:01:48;94326.13;;;20.67;100.00
6833;BME280;3454;42.654;23.378;2022-08-25T06:04:32;94316.38;;;20.56;100.00
6833;BME280;3454;42.654;23.378;2022-08-25T06:06:58;94302.88;;;20.61;100.00
6833;BME280;3454;42.654;23.378;2022-08-25T06:09:24;94315.22;;;20.59;100.00
6833;BME280;3454;42.654;23.378;2022-08-25T06:11:49;94325.13;;;20.75;100.00
6833;BME280;3454;42.654;23.378;2022-08-25T06:14:15;94310.81;;;20.99;100.00
6833;BME280;3454;42.654;23.378;2022-08-25T06:16:41;94332.09;;;21.07;100.00
6833;BME280;3454;42.654;23.378;2022-08-25T06:19:08;94322.75;;;21.13;100.00
6833;BME280;3454;42.654;23.378;2022-08-25T06:21:34;94327.13;;;21.12;100.00
6833;BME280;3454;42.654;23.378;2022-08-25T06:24:00;94320.47;;;21.49;100.00
6833;BME280;3454;42.654;23.378;2022-08-25T06:26:25;94350.03;;;21.66;100.00
6833;BME280;3454;42.654;23.378;2022-08-25T06:28:51;94349.16;;;21.98;100.00
6833;BME280;3454;42.654;23.378;2022-08-25T06:31:17;94339.53;;;22.12;100.00
6833;BME280;3454;42.654;23.378;2022-08-25T06:33:43;94332.72;;;22.17;100.00
6833;BME280;3454;42.654;23.378;2022-08-25T06:36:09;94365.13;;;22.26;100.00
6833;BME280;3454;42.654;23.378;2022-08-25T06:38:35;94349.63;;;22.51;100.00
6833;BME280;3454;42.654;23.378;2022-08-25T06:41:05;94372.72;;;22.59;100.00
6833;BME280;3454;42.654;23.378;2022-08-25T06:43:31;94376.72;;;22.62;100.00
6833;BME280;3454;42.654;23.378;2022-08-25T06:46:06;94376.38;;;22.45;100.00
6833;BME280;3454;42.654;23.378;2022-08-25T06:48:32;94355.19;;;22.54;100.00
6833;BME280;3454;42.654;23.378;2022-08-25T06:50:58;94374.91;;;22.62;100.00
6833;BME280;3454;42.654;23.378;2022-08-25T06:53:24;94397.03;;;22.89;100.00
6833;BME280;3454;42.654;23.378;2022-08-25T06:55:56;94403.81;;;22.90;100.00
6833;BME280;3454;42.654;23.378;2022-08-25T06:58:22;94401.38;;;22.95;100.00
6833;BME280;3454;42.654;23.378;2022-08-25T07:00:48;94393.81;;;22.94;100.00
6833;BME280;3454;42.654;23.378;2022-08-25T07:03:13;94383.97;;;23.02;100.00
6833;BME280;3454;42.654;23.378;2022-08-25T07:05:39;94396.78;;;23.22;100.00
6833;BME280;3454;42.654;23.378;2022-08-25T07:08:05;94391.31;;;23.30;100.00
6833;BME280;3454;42.654;23.378;2022-08-25T07:10:30;94405.78;;;23.44;100.00
6833;BME280;3454;42.654;23.378;2022-08-25T07:12:56;94412.00;;;23.61;100.00
6833;BME280;3454;42.654;23.378;2022-08-25T07:15:22;94425.13;;;23.66;100.00
6833;BME280;3454;42.654;23.378;2022-08-25T07:17:48;94425.94;;;23.85;100.00
6833;BME280;3454;42.654;23.378;2022-08-25T07:20:14;94447.13;;;23.82;100.00
6833;BME280;3454;42.654;23.378;2022-08-25T07:22:39;94447.94;;;23.82;100.00
6833;BME280;3454;42.654;23.378;2022-08-25T07:25:06;94446.19;;;23.76;98.83
6833;BME280;3454;42.654;23.378;2022-08-25T07:27:32;94459.22;;;23.70;98.02
6833;BME280;3454;42.654;23.378;2022-08-25T07:29:58;94431.84;;;23.74;98.80
6833;BME280;3454;42.654;23.378;2022-08-25T07:32:23;94420.97;;;23.65;99.19
6833;BME280;3454;42.654;23.378;2022-08-25T07:34:49;94414.09;;;23.71;99.67
6833;BME280;3454;42.654;23.378;2022-08-25T07:37:37;94415.47;;;23.55;99.82
6833;BME280;3454;42.654;23.378;2022-08-25T07:40:03;94408.84;;;23.59;99.37
6833;BME280;3454;42.654;23.378;2022-08-25T07:42:28;94444.19;;;23.78;97.17
6833;BME280;3454;42.654;23.378;2022-08-25T07:44:54;94410.34;;;23.67;99.09
6833;BME280;3454;42.654;23.378;2022-08-25T07:47:19;94415.69;;;23.72;99.18
6833;BME280;3454;42.654;23.378;2022-08-25T07:49:45;94415.47;;;23.91;99.25
6833;BME280;3454;42.654;23.378;2022-08-25T07:52:11;94433.09;;;24.07;97.70
6833;BME280;3454;42.654;23.378;2022-08-25T07:54:37;94454.53;;;24.21;96.74
6833;BME280;3454;42.654;23.378;2022-08-25T07:57:03;94441.22;;;24.29;96.96
6833;BME280;3454;42.654;23.378;2022-08-25T07:59:29;94433.13;;;24.37;97.10
6833;BME280;3454;42.654;23.378;2022-08-25T08:01:55;94461.28;;;24.40;94.69
6833;BME280;3454;42.654;23.378;2022-08-25T08:04:20;94459.53;;;24.52;94.81
6833;BME280;3454;42.654;23.378;2022-08-25T08:09:11;94448.56;;;24.50;94.69
6833;BME280;3454;42.654;23.378;2022-08-25T08:11:37;94441.63;;;24.62;94.54
6833;BME280;3454;42.654;23.378;2022-08-25T08:14:05;94429.19;;;24.64;95.58
6833;BME280;3454;42.654;23.378;2022-08-25T08:16:32;94430.53;;;24.67;94.69
6833;BME280;3454;42.654;23.378;2022-08-25T08:18:59;94514.69;;;24.72;89.55
6833;BME280;3454;42.654;23.378;2022-08-25T08:21:31;94508.97;;;24.82;87.79
6833;BME280;3454;42.654;23.378;2022-08-25T08:23:58;94434.50;;;24.69;91.44
6833;BME280;3454;42.654;23.378;2022-08-25T08:26:25;94426.13;;;24.67;92.36
6833;BME280;3454;42.654;23.378;2022-08-25T08:28:52;94421.38;;;24.64;92.20
6833;BME280;3454;42.654;23.378;2022-08-25T08:31:22;94426.13;;;24.67;92.01
6833;BME280;3454;42.654;23.378;2022-08-25T08:33:49;94436.31;;;24.98;91.67
6833;BME280;3454;42.654;23.378;2022-08-25T08:36:15;94424.09;;;24.99;92.18
6833;BME280;3454;42.654;23.378;2022-08-25T08:38:42;94463.56;;;24.96;90.04
6833;BME280;3454;42.654;23.378;2022-08-25T08:52:46;94510.53;;;25.42;84.96
6833;BME280;3454;42.654;23.378;2022-08-25T08:55:25;94512.72;;;25.57;84.40
6833;BME280;3454;42.654;23.378;2022-08-25T08:57:54;94490.00;;;25.34;84.58
6833;BME280;3454;42.654;23.378;2022-08-25T09:00:21;94527.59;;;25.38;82.53
6833;BME280;3454;42.654;23.378;2022-08-25T09:02:55;94539.41;;;25.41;81.35
6833;BME280;3454;42.654;23.378;2022-08-25T09:05:25;94550.41;;;25.54;80.29
6833;BME280;3454;42.654;23.378;2022-08-25T09:07:54;94576.31;;;25.49;78.00
6833;BME280;3454;42.654;23.378;2022-08-25T09:10:22;94600.44;;;25.45;74.59
6833;BME280;3454;42.654;23.378;2022-08-25T09:12:58;94594.47;;;25.67;74.18
6833;BME280;3454;42.654;23.378;2022-08-25T09:15:51;94539.09;;;25.72;76.03
6833;BME280;3454;42.654;23.378;2022-08-25T09:21:56;94537.94;;;25.56;77.05
6833;BME280;3454;42.654;23.378;2022-08-25T09:29:43;94521.00;;;25.77;76.76
6833;BME280;3454;42.654;23.378;2022-08-25T09:32:11;94490.31;;;25.79;78.17
6833;BME280;3454;42.654;23.378;2022-08-25T09:34:38;94500.50;;;26.04;77.51
6833;BME280;3454;42.654;23.378;2022-08-25T09:37:03;94586.19;;;26.12;73.06
6833;BME280;3454;42.654;23.378;2022-08-25T09:39:28;94581.63;;;26.30;72.90
6833;BME280;3454;42.654;23.378;2022-08-25T09:41:56;94505.34;;;25.89;75.82
6833;BME280;3454;42.654;23.378;2022-08-25T09:44:30;94531.78;;;26.15;74.45
6833;BME280;3454;42.654;23.378;2022-08-25T09:49:44;94556.69;;;26.34;72.69
6833;BME280;3454;42.654;23.378;2022-08-25T09:54:51;94582.59;;;26.52;71.20
6833;BME280;3454;42.654;23.378;2022-08-25T10:02:34;94518.63;;;25.87;74.13
6833;BME280;3454;42.654;23.378;2022-08-25T10:05:25;94506.03;;;25.84;74.96
6833;BME280;3454;42.654;23.378;2022-08-25T10:07:57;94523.81;;;25.99;73.74
6833;BME280;3454;42.654;23.378;2022-08-25T10:13:01;94535.47;;;25.96;73.60
6833;BME280;3454;42.654;23.378;2022-08-25T10:15:34;94491.56;;;26.11;75.45
6833;BME280;3454;42.654;23.378;2022-08-25T10:18:24;94564.69;;;26.68;71.88
6833;BME280;3454;42.654;23.378;2022-08-25T10:21:14;94572.16;;;26.76;71.03
6833;BME280;3454;42.654;23.378;2022-08-25T10:23:46;94572.38;;;26.86;70.85
6833;BME280;3454;42.654;23.378;2022-08-25T10:34:37;94611.16;;;27.78;67.63
6833;BME280;3454;42.654;23.378;2022-08-25T10:40:02;94689.41;;;28.13;63.13
6833;BME280;3454;42.654;23.378;2022-08-25T10:42:42;94691.31;;;28.17;62.03
6833;BME280;3454;42.654;23.378;2022-08-25T10:45:27;94712.84;;;28.24;59.98
6833;BME280;3454;42.654;23.378;2022-08-25T10:56:57;94599.78;;;29.16;57.97
6833;BME280;3454;42.654;23.378;2022-08-25T11:05:16;94569.75;;;29.23;56.29
6833;BME280;3454;42.654;23.378;2022-08-25T11:07:47;94535.56;;;29.66;57.83
6833;BME280;3454;42.654;23.378;2022-08-25T11:10:21;94546.47;;;29.27;57.00
6833;BME280;3454;42.654;23.378;2022-08-25T11:12:57;94533.94;;;28.80;57.04
6833;BME280;3454;42.654;23.378;2022-08-25T11:15:30;94548.72;;;28.70;57.09
6833;BME280;3454;42.654;23.378;2022-08-25T11:18:03;94527.47;;;28.66;57.25
6833;BME280;3454;42.654;23.378;2022-08-25T11:20:39;94519.91;;;28.70;56.75
6833;BME280;3454;42.654;23.378;2022-08-25T11:25:53;94479.59;;;28.49;58.95
6833;BME280;3454;42.654;23.378;2022-08-25T11:31:02;94410.50;;;28.02;61.35
6833;BME280;3454;42.654;23.378;2022-08-25T11:33:29;94433.94;;;28.13;60.67
6833;BME280;3454;42.654;23.378;2022-08-25T11:36:02;94414.75;;;28.08;62.10
6833;BME280;3454;42.654;23.378;2022-08-25T11:38:59;94381.72;;;27.59;63.52
6833;BME280;3454;42.654;23.378;2022-08-25T11:52:44;94439.16;;;29.10;60.08
6833;BME280;3454;42.654;23.378;2022-08-25T11:55:16;94477.28;;;29.23;57.65
6833;BME280;3454;42.654;23.378;2022-08-25T11:57:44;94492.75;;;29.24;57.22
6833;BME280;3454;42.654;23.378;2022-08-25T12:00:14;;;;29.42;
6833;BME280;3454;42.654;23.378;2022-08-25T12:02:53;94463.75;;;29.09;58.13
6833;BME280;3454;42.654;23.378;2022-08-25T12:16:04;94463.19;;;28.54;58.19
6833;BME280;3454;42.654;23.378;2022-08-25T12:32:12;94465.22;;;28.68;56.89
6833;BME280;3454;42.654;23.378;2022-08-25T12:35:16;94431.13;;;28.42;58.58
6833;BME280;3454;42.654;23.378;2022-08-25T12:40:35;94478.28;;;28.25;56.33
6833;BME280;3454;42.654;23.378;2022-08-25T12:43:07;94394.88;;;28.29;60.74
6833;BME280;3454;42.654;23.378;2022-08-25T12:45:42;94438.75;;;28.21;58.44
6833;BME280;3454;42.654;23.378;2022-08-25T12:51:01;94435.75;;;27.75;58.76
6833;BME280;3454;42.654;23.378;2022-08-25T12:56:34;94475.59;;;28.42;56.41
6833;BME280;3454;42.654;23.378;2022-08-25T13:13:09;94403.84;;;28.11;59.85
6833;BME280;3454;42.654;23.378;2022-08-25T13:15:43;94390.34;;;27.97;60.72
6833;BME280;3454;42.654;23.378;2022-08-25T13:18:21;94345.56;;;27.94;63.29
6833;BME280;3454;42.654;23.378;2022-08-25T13:21:23;94424.72;;;27.89;59.28
6833;BME280;3454;42.654;23.378;2022-08-25T13:23:51;94401.19;;;28.33;60.41
6833;BME280;3454;42.654;23.378;2022-08-25T13:26:29;94464.41;;;28.68;57.04
6833;BME280;3454;42.654;23.378;2022-08-25T13:31:27;94470.00;;;29.03;56.58
6833;BME280;3454;42.654;23.378;2022-08-25T13:34:00;94478.44;;;28.83;55.76
6833;BME280;3454;42.654;23.378;2022-08-25T13:36:30;94488.00;;;28.73;54.89
6833;BME280;3454;42.654;23.378;2022-08-25T13:39:20;94474.63;;;28.69;55.27
6833;BME280;3454;42.654;23.378;2022-08-25T13:41:51;94480.81;;;28.85;56.05
6833;BME280;3454;42.654;23.378;2022-08-25T13:44:20;94510.31;;;29.02;54.01
6833;BME280;3454;42.654;23.378;2022-08-25T13:46:47;94531.69;;;29.42;53.06
6833;BME280;3454;42.654;23.378;2022-08-25T13:49:28;94522.22;;;29.41;53.53
6833;BME280;3454;42.654;23.378;2022-08-25T13:51:55;94508.75;;;29.59;54.16
6833;BME280;3454;42.654;23.378;2022-08-25T13:54:30;94509.19;;;29.46;54.25
6833;BME280;3454;42.654;23.378;2022-08-25T13:59:37;94522.19;;;29.36;53.02
6833;BME280;3454;42.654;23.378;2022-08-25T14:02:04;94477.75;;;29.15;54.41
6833;BME280;3454;42.654;23.378;2022-08-25T14:12:35;94540.00;;;29.66;52.67
6833;BME280;3454;42.654;23.378;2022-08-25T14:15:07;94526.00;;;29.82;52.48
6833;BME280;3454;42.654;23.378;2022-08-25T14:17:34;94502.41;;;29.82;53.13
6833;BME280;3454;42.654;23.378;2022-08-25T14:20:01;94541.56;;;29.94;51.73
6833;BME280;3454;42.654;23.378;2022-08-25T14:22:27;94546.88;;;30.04;51.59
6833;BME280;3454;42.654;23.378;2022-08-25T14:24:53;94519.53;;;29.95;52.52
6833;BME280;3454;42.654;23.378;2022-08-25T14:27:19;94513.25;;;29.64;52.64
6833;BME280;3454;42.654;23.378;2022-08-25T14:29:45;94478.28;;;29.48;54.42
6833;BME280;3454;42.654;23.378;2022-08-25T14:32:10;94538.59;;;29.53;51.36
6833;BME280;3454;42.654;23.378;2022-08-25T14:34:38;94501.59;;;29.76;52.52
6833;BME280;3454;42.654;23.378;2022-08-25T14:37:21;94516.91;;;29.90;52.31
6833;BME280;3454;42.654;23.378;2022-08-25T14:39:47;94543.53;;;30.13;50.67
6833;BME280;3454;42.654;23.378;2022-08-25T14:42:12;94543.69;;;29.97;50.57
6833;BME280;3454;42.654;23.378;2022-08-25T14:44:38;94497.09;;;29.40;52.41
6833;BME280;3454;42.654;23.378;2022-08-25T14:47:05;94514.72;;;29.50;52.03
6833;BME280;3454;42.654;23.378;2022-08-25T14:49:34;94534.69;;;29.56;50.31
6833;BME280;3454;42.654;23.378;2022-08-25T14:52:07;94521.38;;;29.62;50.99
6833;BME280;3454;42.654;23.378;2022-08-25T14:54:33;94543.06;;;29.53;50.20
6833;BME280;3454;42.654;23.378;2022-08-25T14:56:59;94516.03;;;28.99;51.13
6833;BME280;3454;42.654;23.378;2022-08-25T14:59:31;94483.53;;;28.95;52.96
6833;BME280;3454;42.654;23.378;2022-08-25T15:01:57;94467.44;;;28.81;53.56
6833;BME280;3454;42.654;23.378;2022-08-25T15:04:26;94468.97;;;28.77;53.42
6833;BME280;3454;42.654;23.378;2022-08-25T15:07:01;94416.66;;;28.56;55.91
6833;BME280;3454;42.654;23.378;2022-08-25T15:09:47;94412.13;;;28.73;56.38
6833;BME280;3454;42.654;23.378;2022-08-25T15:12:12;94467.63;;;28.53;54.07
6833;BME280;3454;42.654;23.378;2022-08-25T15:14:39;94419.63;;;28.43;56.48
6833;BME280;3454;42.654;23.378;2022-08-25T15:17:06;94418.84;;;28.42;56.37
6833;BME280;3454;42.654;23.378;2022-08-25T15:19:32;94423.41;;;28.30;56.81
6833;BME280;3454;42.654;23.378;2022-08-25T15:21:58;94409.63;;;28.13;57.46
6833;BME280;3454;42.654;23.378;2022-08-25T15:24:24;94410.91;;;27.94;56.98
6833;BME280;3454;42.654;23.378;2022-08-25T15:26:57;94399.97;;;27.75;57.60
6833;BME280;3454;42.654;23.378;2022-08-25T15:29:24;94397.81;;;27.72;57.94
6833;BME280;3454;42.654;23.378;2022-08-25T15:31:52;94354.09;;;27.46;59.59
6833;BME280;3454;42.654;23.378;2022-08-25T15:34:17;94355.16;;;27.45;60.38
6833;BME280;3454;42.654;23.378;2022-08-25T15:36:43;94394.13;;;27.52;58.73
6833;BME280;3454;42.654;23.378;2022-08-25T15:39:09;94350.47;;;27.47;60.45
6833;BME280;3454;42.654;23.378;2022-08-25T15:41:35;94279.28;;;27.35;64.27